Little Rock Air Force Base
KLRF : now visible

Airfield :











YOU CAN JOIN US ON...

 
LOGIN :

Register | Disclaimer

   EN    FR    IT 

 









Legend :    VFR   Marginal VFR   IFR   Intensive IFR   Very Intensive IFR
Visi :
Ceiling :
>= 8 km
>= 3000ft
5 to 8 km
1000 to 3000 ft
1500m to 5 km
500 to 1000 ft
800 to 1500m
200 to 500 ft
< 800m
< 200 ft
Symbols :   Thunderstorms  Fog  Heavy snow  Heavy precipitations  Wind > 20 kt






- Airport Elevation : 311 ft


KLRF - Little Rock Air Force Base

CURRENT METAR :
  • 231056Z AUTO 00000KT 10SM CLR 11/10 A2997 RMK AO2 SLP151 T01080099

EXPIRED METARs :
  • 230956Z AUTO 00000KT 10SM CLR 11/10 A2997 RMK AO2 SLP150 T01130104
  • 230856Z AUTO 00000KT 10SM CLR 12/11 A2998 RMK AO2 SLP154 T01210110 57005

TAF TAF KLRF
Valid from the 23 at 07:00 until the 24 at 13:00 UTC


230701Z 2307/2413 VRB05KT 9999 OVC080 QNH2998INS
BECMG 2314/2315 20012G18KT 9999 SCT030 QNH2997INS
BECMG 2321/2322 19012KT 9999 SCT050 QNH2984INS
BECMG 2404/2405 21009KT 9999 BKN030 WS020/23030KT QNH2983INS
BECMG 2408/2409 20012KT 9999 BKN020 OVC060 WS020/22035KT QNH2986INS TX23/2321Z TN09/2310Z
KZME FIR / North America



MET'MAP, your aeronautical weather chart ! - Copyright ORBIFLY December 2007 - Disclaimer

ORBIFLY MET'MAP TEAM :

Programming & Development : Alexandra Zaïnal
Concept & original design : Baudouin d'Aumeries
Assistance for programming : Marc-Olivier Méhu
Technical & hardware support : Manuel Goepfert

Contact : metmap@orbifly.com




SOURCES & CREDITS :

   NOAA       Earth
Advisory